Time;durP1;ratioP1;P1;durP2;ratioP2;P2;SDS_P1;SDS_P2;PMS_P1;PMS_P2;Temp;Humidity;BMP_temperature;BMP_pressure;BME280_temperature;BME280_humidity;BME280_pressure;Samples;Min_cycle;Max_cycle;Signal;HPM_P1;HPM_P2
2022/03/22 00:00:26;;;;;;;10.70;5.53;;;3.30;43.00;;;;;;6233654;28;20466;-60
2022/03/22 00:03:28;;;;;;;7.90;5.77;;;3.20;43.10;;;;;;6208675;28;20250;-60
2022/03/22 00:06:30;;;;;;;7.43;4.97;;;3.10;43.10;;;;;;6223359;28;20225;-60
2022/03/22 00:09:33;;;;;;;7.63;5.10;;;3.20;43.30;;;;;;6237068;28;20255;-60
2022/03/22 00:12:35;;;;;;;5.67;4.90;;;3.10;43.60;;;;;;6274440;28;20196;-61
2022/03/22 00:15:36;;;;;;;7.47;5.13;;;3.10;43.60;;;;;;6225092;28;20198;-61
2022/03/22 00:18:37;;;;;;;6.00;4.80;;;3.00;43.90;;;;;;6248880;28;20214;-61
2022/03/22 00:21:39;;;;;;;9.33;5.07;;;2.90;44.10;;;;;;6233258;28;20179;-60
2022/03/22 00:24:41;;;;;;;6.00;4.83;;;2.90;44.00;;;;;;6249423;28;20279;-61
2022/03/22 00:27:57;;;;;;;9.10;5.63;;;2.90;44.20;;;;;;6250118;28;1173565;-61
2022/03/22 00:30:58;;;;;;;6.27;4.80;;;2.90;44.10;;;;;;6274972;28;20270;-61
2022/03/22 00:33:59;;;;;;;7.40;4.67;;;2.90;44.00;;;;;;6274274;28;20253;-60
2022/03/22 00:37:00;;;;;;;6.47;5.07;;;2.80;44.20;;;;;;6291517;28;20216;-61
2022/03/22 00:40:02;;;;;;;8.30;5.70;;;2.80;44.60;;;;;;6286928;28;20217;-61
2022/03/22 00:43:03;;;;;;;7.07;5.20;;;2.80;44.80;;;;;;6250002;28;20297;-61
2022/03/22 00:46:04;;;;;;;5.93;4.43;;;2.70;44.90;;;;;;6249711;28;20202;-61
2022/03/22 00:49:05;;;;;;;6.17;4.90;;;2.80;44.80;;;;;;6233726;28;20190;-61
2022/03/22 00:52:06;;;;;;;9.47;5.30;;;2.70;44.80;;;;;;6277667;28;20637;-61
2022/03/22 00:55:08;;;;;;;7.73;5.43;;;2.70;44.90;;;;;;6290715;28;20190;-61
2022/03/22 00:58:08;;;;;;;7.30;5.17;;;2.70;45.00;;;;;;6273774;28;20212;-61
2022/03/22 01:01:09;;;;;;;7.87;5.20;;;2.60;45.00;;;;;;6253280;28;20190;-61
2022/03/22 01:04:10;;;;;;;8.07;5.00;;;2.50;45.30;;;;;;6253256;28;20186;-60
2022/03/22 01:07:11;;;;;;;9.13;4.97;;;2.50;45.40;;;;;;6247874;28;20496;-60
2022/03/22 01:10:13;;;;;;;8.57;4.70;;;2.50;45.50;;;;;;6250076;28;20205;-61
2022/03/22 01:13:13;;;;;;;7.47;4.83;;;2.40;45.70;;;;;;6258353;28;20244;-61
2022/03/22 01:16:15;;;;;;;8.47;5.27;;;2.40;45.80;;;;;;6282638;28;20198;-61
2022/03/22 01:19:21;;;;;;;5.90;4.43;;;2.40;46.30;;;;;;6272238;28;20230;-61
2022/03/22 01:22:22;;;;;;;7.10;4.67;;;2.40;46.10;;;;;;6282432;28;20262;-61
2022/03/22 01:25:25;;;;;;;8.03;4.87;;;2.40;46.10;;;;;;6290551;28;20213;-61
2022/03/22 01:28:27;;;;;;;7.30;5.43;;;2.30;46.20;;;;;;6279823;28;20325;-61
2022/03/22 01:31:27;;;;;;;6.33;5.13;;;2.30;46.20;;;;;;6232643;28;20198;-61
2022/03/22 01:34:28;;;;;;;6.90;4.97;;;2.20;46.30;;;;;;6249675;28;20197;-61
2022/03/22 01:37:29;;;;;;;7.50;4.47;;;2.20;46.30;;;;;;6290219;28;20242;-60
2022/03/22 01:40:30;;;;;;;6.30;4.67;;;2.20;46.50;;;;;;6256203;28;20201;-60
2022/03/22 01:43:31;;;;;;;7.93;5.80;;;2.10;46.80;;;;;;6265824;28;20290;-61
2022/03/22 01:46:36;;;;;;;9.47;5.87;;;2.10;46.90;;;;;;6239836;28;20223;-61
2022/03/22 01:49:36;;;;;;;6.90;5.43;;;2.10;46.80;;;;;;6290718;28;20178;-60
2022/03/22 01:52:40;;;;;;;8.40;5.47;;;2.10;46.90;;;;;;6290026;28;20196;-60
2022/03/22 01:55:41;;;;;;;6.57;5.20;;;2.10;46.80;;;;;;6247336;28;20198;-60
2022/03/22 01:58:42;;;;;;;7.07;4.73;;;2.10;47.00;;;;;;6289987;28;20178;-60
2022/03/22 02:08:29;;;;;;;6.83;5.27;;;2.00;47.30;;;;;;6279342;28;20329;-60
2022/03/22 02:11:31;;;;;;;6.13;4.67;;;2.00;47.20;;;;;;6251114;28;20203;-60
2022/03/22 02:14:32;;;;;;;9.70;5.70;;;1.90;46.90;;;;;;6290358;28;20170;-60
2022/03/22 02:17:34;;;;;;;7.50;4.90;;;1.90;47.30;;;;;;6289451;28;20224;-60
2022/03/22 02:20:36;;;;;;;6.90;5.17;;;1.80;47.30;;;;;;6256072;28;20193;-60
2022/03/22 02:23:40;;;;;;;6.07;4.27;;;1.80;47.10;;;;;;6300184;28;20201;-60
2022/03/22 02:26:42;;;;;;;6.43;5.27;;;1.80;47.40;;;;;;6302067;28;20245;-60
2022/03/22 02:29:43;;;;;;;5.67;4.60;;;1.80;47.70;;;;;;6291117;28;20246;-59
2022/03/22 02:32:59;;;;;;;7.93;5.07;;;1.70;47.70;;;;;;6265283;28;20263;-60
2022/03/22 02:36:00;;;;;;;6.07;4.57;;;1.70;47.70;;;;;;6273100;28;20312;-60
2022/03/22 02:39:01;;;;;;;6.27;4.60;;;1.70;47.90;;;;;;6274840;28;20194;-60
2022/03/22 02:42:02;;;;;;;8.07;4.80;;;1.70;48.00;;;;;;6297776;28;20236;-60
2022/03/22 02:45:03;;;;;;;7.17;4.83;;;1.60;48.20;;;;;;6297327;28;20181;-60
2022/03/22 02:48:04;;;;;;;6.67;4.83;;;1.60;48.40;;;;;;6277186;28;20228;-60
2022/03/22 02:51:05;;;;;;;5.10;4.60;;;1.60;48.30;;;;;;6272924;28;20195;-60
2022/03/22 02:54:06;;;;;;;9.40;5.10;;;1.50;48.40;;;;;;6272292;28;20193;-60
2022/03/22 02:57:07;;;;;;;7.40;5.33;;;1.50;48.70;;;;;;6313720;28;20200;-60
2022/03/22 03:00:09;;;;;;;6.63;5.13;;;1.50;48.50;;;;;;6280164;28;20196;-60
2022/03/22 03:03:10;;;;;;;6.77;4.87;;;1.50;48.60;;;;;;6291953;28;20287;-60
2022/03/22 03:06:12;;;;;;;7.40;4.73;;;1.50;48.70;;;;;;6272538;28;20229;-60
2022/03/22 03:09:12;;;;;;;9.27;5.53;;;1.40;49.10;;;;;;6255558;28;20201;-60
2022/03/22 03:12:13;;;;;;;5.97;4.47;;;1.40;49.00;;;;;;6255563;28;20192;-60
2022/03/22 03:15:16;;;;;;;6.13;5.03;;;1.40;49.00;;;;;;6255514;28;20217;-60
2022/03/22 03:18:20;;;;;;;6.83;4.70;;;1.30;48.90;;;;;;6271960;28;20190;-61
2022/03/22 03:21:21;;;;;;;7.83;4.73;;;1.30;48.90;;;;;;6276983;28;20282;-61
2022/03/22 03:24:21;;;;;;;7.90;5.50;;;1.30;48.90;;;;;;6260205;28;20190;-61
2022/03/22 03:27:22;;;;;;;7.17;5.13;;;1.30;48.90;;;;;;6251693;28;20251;-60
2022/03/22 03:30:23;;;;;;;7.30;5.47;;;1.30;49.00;;;;;;6237225;28;20289;-61
2022/03/22 03:33:24;;;;;;;7.30;5.00;;;1.30;49.10;;;;;;6293259;28;20186;-61
2022/03/22 03:36:25;;;;;;;10.53;5.60;;;1.30;49.10;;;;;;6284134;28;20196;-61
2022/03/22 03:39:26;;;;;;;9.07;5.50;;;1.30;49.10;;;;;;6293344;28;20202;-61
2022/03/22 03:42:26;;;;;;;6.90;4.87;;;1.30;49.10;;;;;;6292977;28;20185;-61
2022/03/22 03:48:46;;;;;;;7.53;5.20;;;1.20;49.20;;;;;;6292262;28;20191;-61
2022/03/22 03:51:47;;;;;;;7.80;5.33;;;1.20;49.30;;;;;;6249957;28;20223;-61
2022/03/22 03:54:48;;;;;;;9.50;5.53;;;1.20;49.50;;;;;;6284519;28;20287;-61
2022/03/22 03:57:49;;;;;;;7.23;4.57;;;1.20;49.50;;;;;;6266896;28;20215;-60
2022/03/22 04:00:50;;;;;;;9.17;5.10;;;1.20;49.60;;;;;;6287280;28;20193;-60
2022/03/22 04:03:51;;;;;;;8.30;5.80;;;1.10;49.70;;;;;;6286581;28;20200;-60
2022/03/22 04:06:52;;;;;;;7.57;5.33;;;1.10;49.60;;;;;;6285879;28;20270;-60
2022/03/22 04:09:54;;;;;;;6.60;4.73;;;1.10;49.60;;;;;;6290020;28;20192;-60
2022/03/22 04:12:55;;;;;;;7.40;4.97;;;1.10;49.60;;;;;;6287572;28;20187;-60
2022/03/22 04:15:56;;;;;;;5.70;4.23;;;1.00;49.80;;;;;;6263972;28;20273;-60
2022/03/22 04:18:57;;;;;;;8.53;5.00;;;1.00;49.90;;;;;;6293821;28;20197;-61
2022/03/22 04:21:58;;;;;;;6.07;4.83;;;1.00;50.10;;;;;;6288819;28;20213;-60
2022/03/22 04:24:59;;;;;;;7.03;4.53;;;1.00;50.10;;;;;;6283256;28;20243;-60
2022/03/22 04:34:39;;;;;;;9.50;5.40;;;0.90;50.20;;;;;;6283974;28;20221;-60
2022/03/22 04:37:40;;;;;;;6.87;4.90;;;0.90;50.30;;;;;;6299370;28;20195;-60
2022/03/22 04:40:41;;;;;;;6.00;4.67;;;0.90;50.10;;;;;;6286325;28;20296;-60
2022/03/22 04:43:42;;;;;;;7.50;5.57;;;0.90;50.10;;;;;;6311687;28;20197;-60
2022/03/22 04:46:43;;;;;;;8.43;5.20;;;0.90;50.10;;;;;;6288427;28;20221;-60
2022/03/22 04:49:44;;;;;;;7.47;5.07;;;0.90;50.10;;;;;;6298867;28;20213;-60
2022/03/22 04:59:24;;;;;;;5.87;4.90;;;0.80;50.30;;;;;;6313956;28;20197;-63
2022/03/22 05:02:25;;;;;;;8.60;4.97;;;0.80;50.40;;;;;;6291007;28;20203;-63
2022/03/22 05:08:45;;;;;;;6.47;4.60;;;0.90;50.10;;;;;;6321189;28;20182;-63
2022/03/22 05:11:46;;;;;;;8.63;5.70;;;1.00;50.10;;;;;;6299504;28;20273;-63
2022/03/22 05:14:50;;;;;;;7.37;4.83;;;1.00;50.10;;;;;;6298579;28;20226;-63
2022/03/22 05:17:51;;;;;;;5.90;4.13;;;0.90;50.10;;;;;;6296729;28;20197;-63
2022/03/22 05:20:52;;;;;;;7.17;5.13;;;0.90;50.30;;;;;;6298883;28;20196;-63
2022/03/22 05:23:53;;;;;;;8.07;5.40;;;1.00;50.10;;;;;;6254193;28;20219;-63
2022/03/22 05:26:54;;;;;;;7.93;5.17;;;0.90;50.40;;;;;;6276338;28;20238;-63
2022/03/22 05:29:55;;;;;;;5.07;3.93;;;0.90;50.60;;;;;;6236783;28;20189;-62
2022/03/22 05:32:56;;;;;;;7.57;4.70;;;0.90;50.50;;;;;;6280790;28;20196;-63
2022/03/22 05:35:58;;;;;;;7.30;4.73;;;0.90;50.50;;;;;;6278287;28;20196;-62
2022/03/22 05:38:59;;;;;;;5.80;5.00;;;0.90;50.60;;;;;;6279772;28;20661;-62
2022/03/22 05:42:00;;;;;;;7.07;4.93;;;0.90;50.90;;;;;;6282321;28;20196;-63
2022/03/22 05:45:00;;;;;;;7.73;5.17;;;1.00;50.80;;;;;;6276987;28;20207;-63
2022/03/22 05:48:01;;;;;;;7.93;4.83;;;1.00;50.70;;;;;;6263195;28;20271;-63
2022/03/22 05:51:02;;;;;;;7.50;5.57;;;1.00;50.90;;;;;;6273173;28;20263;-64
2022/03/22 05:54:03;;;;;;;8.37;5.27;;;1.00;50.90;;;;;;6273541;28;20311;-63
2022/03/22 05:57:04;;;;;;;8.87;5.60;;;1.00;51.00;;;;;;6273169;28;20195;-64
2022/03/22 06:00:06;;;;;;;10.63;5.37;;;1.00;50.90;;;;;;6290030;28;20185;-65
2022/03/22 06:03:07;;;;;;;10.40;6.43;;;1.00;51.00;;;;;;6257556;28;20193;-63
2022/03/22 06:06:08;;;;;;;7.93;5.83;;;1.10;51.20;;;;;;6290642;28;20297;-63
2022/03/22 06:09:11;;;;;;;8.10;6.37;;;1.10;51.10;;;;;;6272035;28;20289;-63
2022/03/22 06:12:11;;;;;;;11.17;6.13;;;1.10;51.30;;;;;;6287090;28;20217;-63
2022/03/22 06:15:15;;;;;;;8.37;5.83;;;1.10;51.20;;;;;;6276141;28;20181;-63
2022/03/22 06:18:16;;;;;;;6.87;5.13;;;1.10;51.40;;;;;;6294793;28;20184;-63
2022/03/22 06:21:16;;;;;;;10.70;6.30;;;1.20;51.40;;;;;;6276225;28;20217;-63
2022/03/22 06:24:17;;;;;;;8.53;5.40;;;1.30;51.30;;;;;;6273911;28;20188;-64
2022/03/22 06:27:19;;;;;;;8.17;5.23;;;1.30;51.30;;;;;;6275028;28;20237;-64
2022/03/22 06:30:20;;;;;;;6.73;4.70;;;1.40;51.20;;;;;;6281462;28;20279;-64
2022/03/22 06:33:22;;;;;;;6.90;5.17;;;1.40;51.00;;;;;;6280105;28;20277;-63
2022/03/22 06:36:23;;;;;;;10.73;5.20;;;1.40;51.20;;;;;;6272004;28;20248;-64
2022/03/22 06:39:24;;;;;;;7.23;4.63;;;1.50;50.60;;;;;;6289402;28;20204;-64
2022/03/22 06:42:24;;;;;;;8.70;5.37;;;1.60;50.50;;;;;;6255997;28;20193;-64
2022/03/22 06:45:25;;;;;;;7.47;4.90;;;1.60;50.30;;;;;;6280957;28;20273;-64
2022/03/22 06:48:26;;;;;;;8.43;5.20;;;1.80;50.40;;;;;;6255174;28;20185;-64
2022/03/22 06:51:27;;;;;;;6.40;5.07;;;1.80;50.30;;;;;;6269262;28;20198;-64
2022/03/22 06:54:28;;;;;;;6.73;5.03;;;1.80;50.20;;;;;;6279057;28;20193;-64
2022/03/22 06:57:31;;;;;;;7.00;4.87;;;1.90;49.70;;;;;;6271242;28;20261;-64
2022/03/22 07:00:33;;;;;;;7.63;5.27;;;2.00;49.70;;;;;;6293314;28;20177;-64
2022/03/22 07:03:34;;;;;;;7.83;5.57;;;2.10;49.50;;;;;;6252811;28;20466;-64
2022/03/22 07:06:34;;;;;;;6.33;5.30;;;2.10;49.50;;;;;;6243724;28;20216;-64
2022/03/22 07:09:35;;;;;;;7.57;5.33;;;2.20;49.40;;;;;;6266753;28;20188;-64
2022/03/22 07:12:51;;;;;;;11.17;7.40;;;2.30;49.50;;;;;;6288312;28;20276;-64
2022/03/22 07:15:52;;;;;;;6.17;4.40;;;2.30;49.00;;;;;;6255207;28;20229;-64
2022/03/22 07:18:52;;;;;;;9.13;5.80;;;2.30;49.10;;;;;;6290151;28;20202;-64
2022/03/22 07:21:53;;;;;;;9.87;6.13;;;2.40;49.10;;;;;;6289556;28;20192;-64
2022/03/22 07:24:54;;;;;;;9.17;6.20;;;2.50;48.80;;;;;;6280897;28;20247;-64
2022/03/22 07:27:55;;;;;;;8.37;5.23;;;2.60;48.70;;;;;;6260635;28;20538;-64
2022/03/22 07:30:56;;;;;;;9.73;5.97;;;2.70;48.90;;;;;;6281658;28;20197;-64
2022/03/22 07:33:57;;;;;;;9.43;5.63;;;2.80;48.70;;;;;;6281365;28;20194;-64
2022/03/22 07:36:58;;;;;;;9.23;5.60;;;2.80;48.90;;;;;;6289152;28;20198;-64
2022/03/22 07:39:59;;;;;;;9.40;5.27;;;2.80;48.90;;;;;;6272370;28;20197;-64
2022/03/22 07:43:00;;;;;;;8.73;5.73;;;2.90;48.90;;;;;;6290042;28;20193;-64
2022/03/22 07:46:01;;;;;;;9.70;5.60;;;2.90;49.10;;;;;;6239461;28;20260;-64
2022/03/22 07:55:42;;;;;;;6.90;4.63;;;3.20;48.20;;;;;;6272669;28;20198;-64
2022/03/22 07:58:43;;;;;;;9.93;5.83;;;3.30;48.70;;;;;;6290085;28;20194;-64
2022/03/22 08:01:44;;;;;;;12.47;6.83;;;3.30;48.70;;;;;;6272858;28;20225;-64
2022/03/22 08:04:45;;;;;;;10.70;6.00;;;3.40;47.60;;;;;;6271789;28;20198;-64
2022/03/22 08:07:45;;;;;;;7.87;5.67;;;3.60;47.30;;;;;;6256482;28;20221;-64
2022/03/22 08:10:47;;;;;;;6.93;4.83;;;3.70;47.60;;;;;;6289726;28;20188;-64
2022/03/22 08:13:48;;;;;;;8.73;5.53;;;3.70;47.90;;;;;;6254987;28;20194;-64
2022/03/22 08:16:48;;;;;;;9.43;6.23;;;3.80;48.20;;;;;;6272508;28;20194;-64
2022/03/22 08:19:49;;;;;;;7.27;5.10;;;3.80;47.90;;;;;;6272831;28;20211;-64
2022/03/22 08:22:53;;;;;;;10.60;5.70;;;3.90;47.70;;;;;;6288466;28;20208;-65
2022/03/22 08:25:54;;;;;;;10.47;5.83;;;4.00;47.10;;;;;;6286729;28;20266;-64
2022/03/22 08:28:55;;;;;;;8.30;5.90;;;4.10;47.50;;;;;;6249466;28;20284;-64
2022/03/22 08:31:57;;;;;;;7.90;5.17;;;4.10;47.40;;;;;;6256273;28;20203;-64
2022/03/22 08:34:57;;;;;;;8.23;5.70;;;4.20;47.50;;;;;;6235439;28;20194;-64
2022/03/22 08:37:58;;;;;;;8.47;5.37;;;4.30;47.60;;;;;;6247151;28;20703;-64
2022/03/22 08:40:59;;;;;;;8.57;4.97;;;4.30;47.40;;;;;;6254388;28;20288;-64
2022/03/22 08:44:00;;;;;;;6.93;5.13;;;4.30;47.10;;;;;;6254150;28;20201;-64
2022/03/22 08:47:01;;;;;;;9.07;5.60;;;4.40;47.10;;;;;;6254344;28;20225;-64
2022/03/22 08:50:05;;;;;;;9.80;5.47;;;4.50;44.50;;;;;;6255208;28;20192;-64
2022/03/22 08:53:06;;;;;;;9.23;5.97;;;4.60;43.80;;;;;;6254895;28;20216;-65
2022/03/22 08:56:07;;;;;;;7.83;6.07;;;4.70;43.90;;;;;;6254578;28;20201;-65
2022/03/22 08:59:09;;;;;;;7.23;4.40;;;4.80;40.70;;;;;;6254978;28;20204;-65
2022/03/22 09:02:09;;;;;;;6.87;4.30;;;4.90;41.10;;;;;;6254099;28;20322;-64
2022/03/22 09:08:31;;;;;;;6.20;4.53;;;5.10;40.60;;;;;;6274114;28;20194;-64
2022/03/22 09:11:34;;;;;;;7.63;4.30;;;5.20;39.60;;;;;;6253623;28;20320;-65
2022/03/22 09:14:35;;;;;;;4.97;4.00;;;5.30;36.50;;;;;;6221261;28;20201;-65
2022/03/22 09:17:37;;;;;;;6.70;4.07;;;5.50;35.90;;;;;;6235596;28;20190;-65
2022/03/22 09:20:38;;;;;;;5.00;4.33;;;5.80;32.70;;;;;;6253868;28;20182;-65
2022/03/22 09:23:40;;;;;;;6.97;4.70;;;5.80;33.50;;;;;;6270994;28;20281;-65
2022/03/22 09:26:41;;;;;;;7.83;6.23;;;6.00;33.40;;;;;;6254087;28;20249;-65
2022/03/22 09:29:42;;;;;;;10.90;6.27;;;6.10;33.70;;;;;;6288384;28;20197;-65
2022/03/22 09:32:42;;;;;;;6.97;5.43;;;6.20;32.90;;;;;;6286751;28;20188;-65
2022/03/22 09:35:44;;;;;;;6.93;5.83;;;6.20;33.60;;;;;;6303841;28;20285;-65
2022/03/22 09:38:45;;;;;;;9.23;6.60;;;6.30;32.60;;;;;;6303067;28;20197;-65
2022/03/22 09:41:49;;;;;;;9.27;6.50;;;6.40;33.00;;;;;;6286091;28;20201;-65
2022/03/22 09:44:51;;;;;;;9.67;6.67;;;6.50;32.70;;;;;;6275109;28;20208;-65
2022/03/22 09:47:52;;;;;;;10.73;6.87;;;6.60;32.20;;;;;;6236788;28;20268;-65
2022/03/22 09:54:18;;;;;;;7.23;6.23;;;6.80;32.10;;;;;;6247848;28;20198;-65
2022/03/22 09:57:19;;;;;;;8.23;6.40;;;6.80;32.10;;;;;;6260767;28;20240;-65
2022/03/22 10:00:19;;;;;;;7.97;6.10;;;6.80;32.00;;;;;;6261674;28;20193;-65
2022/03/22 10:03:21;;;;;;;9.03;6.90;;;6.90;32.20;;;;;;6251038;28;20209;-65
2022/03/22 10:06:22;;;;;;;8.33;5.93;;;6.90;31.50;;;;;;6270611;28;20252;-65
2022/03/22 10:09:28;;;;;;;7.67;6.23;;;7.00;31.30;;;;;;6270237;28;20194;-65
2022/03/22 10:12:33;;;;;;;7.67;6.00;;;7.10;30.00;;;;;;6285985;28;20224;-65
2022/03/22 10:15:36;;;;;;;11.07;6.23;;;7.20;30.50;;;;;;6285768;28;20190;-65
2022/03/22 10:18:37;;;;;;;8.10;5.60;;;7.30;30.10;;;;;;6283925;28;20319;-65
2022/03/22 10:21:48;;;;;;;8.30;6.57;;;7.30;30.80;;;;;;6259733;28;20569;-65
2022/03/22 10:24:52;;;;;;;8.53;7.43;;;7.30;30.60;;;;;;6285651;28;20195;-65
2022/03/22 10:27:57;;;;;;;6.77;5.70;;;7.50;30.10;;;;;;6275206;28;20364;-65
2022/03/22 10:30:58;;;;;;;7.90;6.10;;;7.60;29.40;;;;;;6256689;28;20284;-65
2022/03/22 10:34:00;;;;;;;7.90;6.03;;;7.80;29.30;;;;;;6273484;28;20661;-65
2022/03/22 10:37:01;;;;;;;7.73;6.67;;;7.90;30.40;;;;;;6257726;28;20271;-65
2022/03/22 10:40:02;;;;;;;10.10;6.77;;;7.80;30.70;;;;;;6257627;28;20283;-65
2022/03/22 10:43:04;;;;;;;8.37;6.70;;;7.80;30.30;;;;;;6257332;28;20204;-65
2022/03/22 10:46:12;;;;;;;9.27;7.37;;;8.00;29.50;;;;;;6240790;28;20206;-65
2022/03/22 10:49:18;;;;;;;8.37;6.03;;;8.20;29.40;;;;;;6274557;28;20194;-65
2022/03/22 10:52:20;;;;;;;9.97;6.90;;;8.10;29.70;;;;;;6257765;28;20218;-65
2022/03/22 10:55:24;;;;;;;9.30;6.93;;;8.10;29.80;;;;;;6240516;28;20193;-65
2022/03/22 10:58:27;;;;;;;10.93;6.60;;;8.30;29.30;;;;;;6239721;28;20194;-65
2022/03/22 11:01:28;;;;;;;10.30;7.13;;;8.50;28.80;;;;;;6266778;28;20245;-65
2022/03/22 11:04:31;;;;;;;8.63;6.57;;;8.70;29.90;;;;;;6249860;28;20186;-65
2022/03/22 11:07:37;;;;;;;8.00;6.33;;;8.70;29.00;;;;;;6249917;28;20816;-65
2022/03/22 11:10:38;;;;;;;7.40;5.80;;;8.70;28.30;;;;;;6264927;28;20194;-65
2022/03/22 11:13:40;;;;;;;7.93;6.37;;;8.70;28.80;;;;;;6266250;28;20272;-65
2022/03/22 11:16:42;;;;;;;7.03;5.80;;;8.70;28.90;;;;;;6256025;28;20194;-65
2022/03/22 11:19:44;;;;;;;16.87;7.30;;;8.70;28.40;;;;;;6249213;28;20202;-65
2022/03/22 11:23:08;;;;;;;7.07;5.80;;;8.80;28.60;;;;;;6250900;28;20198;-65
2022/03/22 11:26:16;;;;;;;7.80;6.47;;;9.10;27.50;;;;;;6256595;28;20242;-65
2022/03/22 11:29:17;;;;;;;9.97;6.27;;;9.20;27.90;;;;;;6256081;28;20269;-65
2022/03/22 11:35:50;;;;;;;9.33;6.33;;;9.40;27.30;;;;;;6241929;28;20194;-65
2022/03/22 11:38:54;;;;;;;8.33;6.23;;;9.30;27.50;;;;;;6256935;28;20251;-65
2022/03/22 11:45:15;;;;;;;8.57;5.70;;;9.80;26.60;;;;;;6274613;28;20190;-65
2022/03/22 11:48:16;;;;;;;6.80;5.47;;;9.90;26.30;;;;;;6255862;28;20244;-65
2022/03/22 11:51:23;;;;;;;7.10;5.97;;;10.00;26.90;;;;;;6256528;28;20190;-66
2022/03/22 11:54:26;;;;;;;7.13;5.40;;;10.00;26.80;;;;;;6271852;28;20258;-66
2022/03/22 11:57:39;;;;;;;8.37;5.93;;;10.30;25.90;;;;;;6255704;28;20190;-65
2022/03/22 12:00:46;;;;;;;7.47;5.47;;;10.80;24.30;;;;;;6255657;28;20231;-66
2022/03/22 12:03:51;;;;;;;6.90;5.73;;;10.80;24.20;;;;;;6254063;28;20201;-66
2022/03/22 12:06:53;;;;;;;6.17;4.90;;;11.00;23.40;;;;;;6255246;28;20218;-66
2022/03/22 12:10:02;;;;;;;6.23;5.63;;;11.10;23.10;;;;;;6237440;28;20202;-66
2022/03/22 12:13:03;;;;;;;6.57;5.07;;;11.50;22.80;;;;;;6241793;28;20285;-66
2022/03/22 12:16:05;;;;;;;9.13;6.00;;;11.80;21.90;;;;;;6282908;28;20198;-63
2022/03/22 12:19:06;;;;;;;7.97;5.77;;;11.80;22.40;;;;;;6272383;28;20191;-66
2022/03/22 12:22:07;;;;;;;5.90;4.97;;;12.30;22.30;;;;;;6266659;28;20197;-64
2022/03/22 12:25:28;;;;;;;6.40;4.63;;;12.30;22.10;;;;;;6268023;28;20200;-64
2022/03/22 12:28:29;;;;;;;5.50;4.87;;;12.60;21.90;;;;;;6275382;28;20234;-64
2022/03/22 12:31:30;;;;;;;6.80;5.10;;;12.60;22.70;;;;;;6256161;28;20189;-64
2022/03/22 12:34:35;;;;;;;6.43;5.73;;;12.60;23.20;;;;;;6211013;28;20226;-64
2022/03/22 12:37:36;;;;;;;6.30;5.23;;;13.00;21.50;;;;;;6262170;28;20256;-64
2022/03/22 12:40:37;;;;;;;7.57;5.83;;;13.40;21.10;;;;;;6256780;28;20242;-64
2022/03/22 12:43:45;;;;;;;7.03;6.03;;;13.60;20.80;;;;;;6261787;28;20217;-64
2022/03/22 12:46:47;;;;;;;9.47;5.50;;;13.60;20.40;;;;;;6256791;28;20226;-64
2022/03/22 12:49:48;;;;;;;8.83;6.10;;;14.00;20.10;;;;;;6265646;28;20187;-64
2022/03/22 12:52:50;;;;;;;7.50;5.20;;;14.60;19.40;;;;;;6261529;28;20210;-66
2022/03/22 12:55:51;;;;;;;11.27;6.03;;;14.50;20.40;;;;;;6286045;28;20205;-64
2022/03/22 12:58:52;;;;;;;8.70;5.43;;;14.40;21.30;;;;;;6280922;28;20193;-64
2022/03/22 13:01:58;;;;;;;5.97;5.03;;;14.70;20.40;;;;;;6276086;28;20194;-64
2022/03/22 13:04:59;;;;;;;7.50;4.63;;;15.10;19.80;;;;;;6264291;28;20281;-64
2022/03/22 13:08:00;;;;;;;6.10;4.90;;;15.90;17.90;;;;;;6271015;28;20220;-64
2022/03/22 13:11:35;;;;;;;6.47;5.33;;;15.80;18.40;;;;;;6275573;28;20268;-64
2022/03/22 13:17:50;;;;;;;7.23;5.00;;;16.80;17.10;;;;;;6284920;28;20195;-65
2022/03/22 13:20:52;;;;;;;5.10;4.60;;;17.00;17.50;;;;;;6215267;28;20199;-66
2022/03/22 13:24:07;;;;;;;5.40;4.87;;;17.00;16.50;;;;;;6250440;28;20189;-66
2022/03/22 13:27:09;;;;;;;5.40;4.90;;;17.50;16.10;;;;;;6294216;28;20289;-66
2022/03/22 13:30:18;;;;;;;6.67;4.93;;;17.50;16.70;;;;;;6278540;28;20186;-66
2022/03/22 13:33:21;;;;;;;6.57;5.00;;;17.50;16.70;;;;;;6257746;28;20194;-66
2022/03/22 13:36:22;;;;;;;7.03;4.77;;;17.80;16.60;;;;;;6271020;28;20202;-66
2022/03/22 13:39:24;;;;;;;5.37;4.57;;;18.20;16.30;;;;;;6260082;28;20223;-66
2022/03/22 13:42:25;;;;;;;5.10;4.40;;;18.50;17.20;;;;;;6261514;28;20197;-67
2022/03/22 13:45:26;;;;;;;5.27;4.67;;;19.40;16.50;;;;;;6285530;28;20194;-67
2022/03/22 13:48:27;;;;;;;5.10;4.60;;;20.70;14.30;;;;;;6268406;28;20193;-66
2022/03/22 13:51:30;;;;;;;7.53;5.13;;;21.60;14.20;;;;;;6294798;28;20194;-67
2022/03/22 13:54:30;;;;;;;5.07;4.57;;;22.20;13.20;;;;;;6259839;28;20223;-67
2022/03/22 13:57:35;;;;;;;7.97;5.73;;;22.70;14.20;;;;;;6294156;28;20193;-66
2022/03/22 14:00:37;;;;;;;6.67;4.83;;;23.90;12.60;;;;;;6295661;28;20181;-66
2022/03/22 14:03:38;;;;;;;5.50;4.87;;;24.80;11.90;;;;;;6294519;28;20271;-67
2022/03/22 14:06:39;;;;;;;5.40;4.90;;;25.00;11.80;;;;;;6277168;28;20208;-67
2022/03/22 14:09:41;;;;;;;8.80;5.70;;;25.30;11.80;;;;;;6277626;28;20218;-66
2022/03/22 14:12:42;;;;;;;6.33;4.83;;;25.30;11.60;;;;;;6269804;28;20201;-66
2022/03/22 14:15:43;;;;;;;5.73;5.10;;;25.50;11.70;;;;;;6276964;28;20193;-67
2022/03/22 14:18:43;;;;;;;5.20;4.70;;;25.20;12.10;;;;;;6292739;28;20250;-67
2022/03/22 14:21:44;;;;;;;6.03;4.93;;;25.60;11.20;;;;;;6260760;28;20253;-66
2022/03/22 14:24:50;;;;;;;5.07;4.57;;;25.80;10.90;;;;;;6286426;28;20256;-65
2022/03/22 14:27:53;;;;;;;5.27;4.77;;;25.60;12.00;;;;;;6285553;28;20241;-65
2022/03/22 14:30:53;;;;;;;4.67;4.17;;;25.80;12.30;;;;;;6297749;28;20185;-65
2022/03/22 14:33:54;;;;;;;5.80;5.03;;;26.20;11.50;;;;;;6294712;28;20205;-66
2022/03/22 14:36:55;;;;;;;7.07;4.53;;;26.70;11.50;;;;;;6277856;28;20200;-66
2022/03/22 14:39:56;;;;;;;7.80;5.33;;;27.20;11.30;;;;;;6269292;28;20226;-66
2022/03/22 14:42:58;;;;;;;4.13;3.80;;;27.00;11.40;;;;;;6273535;28;20251;-66
2022/03/22 14:45:59;;;;;;;5.70;4.50;;;27.70;11.00;;;;;;6293243;28;20217;-67
2022/03/22 14:49:00;;;;;;;4.77;4.33;;;28.60;9.60;;;;;;6326115;28;20208;-67
2022/03/22 14:55:19;;;;;;;4.37;3.97;;;28.00;10.30;;;;;;6294167;28;20289;-67
2022/03/22 15:01:40;;;;;;;4.40;3.97;;;27.80;10.10;;;;;;6295230;28;20229;-67
2022/03/22 15:04:41;;;;;;;4.77;4.30;;;27.10;10.40;;;;;;6296004;28;20193;-67
2022/03/22 15:07:46;;;;;;;4.30;3.67;;;27.10;9.50;;;;;;6296788;28;20297;-67
2022/03/22 15:10:49;;;;;;;6.40;4.87;;;27.00;10.10;;;;;;6282103;28;20198;-68
2022/03/22 15:13:51;;;;;;;4.93;4.17;;;27.00;9.20;;;;;;6286690;28;20191;-67
2022/03/22 15:16:52;;;;;;;4.73;3.77;;;26.40;9.40;;;;;;6303457;28;20201;-68
2022/03/22 15:19:53;;;;;;;5.27;4.20;;;26.00;10.50;;;;;;6299467;28;20250;-68
2022/03/22 15:22:53;;;;;;;4.33;3.73;;;25.80;10.60;;;;;;6280638;28;20189;-63
2022/03/22 15:25:54;;;;;;;6.27;4.13;;;25.70;10.50;;;;;;6281896;28;20253;-63
2022/03/22 15:28:55;;;;;;;5.70;4.17;;;24.60;11.20;;;;;;6247414;28;20196;-70
2022/03/22 15:31:56;;;;;;;7.67;5.03;;;24.00;11.90;;;;;;6270799;28;20258;-71
2022/03/22 15:34:57;;;;;;;7.53;5.53;;;24.30;11.20;;;;;;6224697;28;20243;-71
2022/03/22 15:37:58;;;;;;;5.00;4.50;;;24.30;11.90;;;;;;6280026;28;20220;-72
2022/03/22 15:40:59;;;;;;;6.03;4.23;;;23.90;12.20;;;;;;6266731;28;20291;-74
2022/03/22 15:44:01;;;;;;;5.40;4.20;;;24.20;11.40;;;;;;6277878;28;20306;-71
2022/03/22 15:47:03;;;;;;;7.20;4.93;;;23.90;12.00;;;;;;6285251;28;20493;-68
2022/03/22 15:50:04;;;;;;;5.57;4.63;;;23.50;11.80;;;;;;6250510;28;20217;-65
2022/03/22 15:53:07;;;;;;;4.50;4.03;;;23.00;11.70;;;;;;6256522;28;20193;-65
2022/03/22 15:56:08;;;;;;;6.37;4.90;;;22.20;12.60;;;;;;6274934;28;20197;-66
2022/03/22 15:59:09;;;;;;;6.83;4.70;;;21.60;13.10;;;;;;6260711;28;20253;-66
2022/03/22 16:02:10;;;;;;;8.47;5.17;;;21.00;13.50;;;;;;6257613;28;20189;-66
2022/03/22 16:05:11;;;;;;;5.20;4.70;;;20.30;14.30;;;;;;6259458;28;20196;-66
2022/03/22 16:08:12;;;;;;;7.63;4.50;;;20.00;14.60;;;;;;6270199;28;20221;-66
2022/03/22 16:11:12;;;;;;;7.30;4.73;;;19.60;14.60;;;;;;6284629;28;20189;-66
2022/03/22 16:14:14;;;;;;;7.03;4.47;;;19.30;14.60;;;;;;6266404;28;20198;-67
2022/03/22 16:17:15;;;;;;;4.80;4.03;;;18.90;14.70;;;;;;6278733;28;20288;-67
2022/03/22 16:20:20;;;;;;;6.57;4.67;;;18.60;14.90;;;;;;6272992;28;20192;-67
2022/03/22 16:23:20;;;;;;;6.17;4.47;;;18.40;15.10;;;;;;6271534;28;20311;-67
2022/03/22 16:26:23;;;;;;;6.90;4.50;;;18.20;15.30;;;;;;6266075;28;20241;-67
2022/03/22 16:29:24;;;;;;;6.30;4.80;;;18.10;15.50;;;;;;6278618;28;20665;-67
2022/03/22 16:36:47;;;;;;;5.20;4.50;;;17.80;16.20;;;;;;6254708;28;20182;-67
2022/03/22 16:39:24;;;;;;;5.83;4.83;;;17.50;16.70;;;;;;6289858;28;20199;-67
2022/03/22 16:42:25;;;;;;;6.17;5.20;;;17.30;16.80;;;;;;6252375;28;20228;-67
2022/03/22 16:45:28;;;;;;;6.53;4.93;;;17.10;16.90;;;;;;6272891;28;20295;-67
2022/03/22 16:48:28;;;;;;;6.20;5.00;;;16.90;17.30;;;;;;6271775;28;20222;-67
2022/03/22 16:51:30;;;;;;;7.70;6.03;;;16.80;17.10;;;;;;6236623;28;20193;-68
2022/03/22 16:54:31;;;;;;;5.97;5.37;;;16.60;16.90;;;;;;6274361;28;20191;-68